sensor_id;sensor_type;location;lat;lon;timestamp;P1;durP1;ratioP1;P2;durP2;ratioP2
19251;SDS011;9760;50.944;5.304;2022-07-18T00:00:38;6.03;;;2.93;;
19251;SDS011;9760;50.944;5.304;2022-07-18T00:03:04;12.77;;;3.20;;
19251;SDS011;9760;50.944;5.304;2022-07-18T00:05:30;5.27;;;2.90;;
19251;SDS011;9760;50.944;5.304;2022-07-18T00:07:56;13.37;;;2.83;;
19251;SDS011;9760;50.944;5.304;2022-07-18T00:10:21;7.20;;;2.70;;
19251;SDS011;9760;50.944;5.304;2022-07-18T00:12:47;8.00;;;2.67;;
19251;SDS011;9760;50.944;5.304;2022-07-18T00:15:13;6.63;;;2.63;;
19251;SDS011;9760;50.944;5.304;2022-07-18T00:17:39;9.70;;;2.60;;
19251;SDS011;9760;50.944;5.304;2022-07-18T00:20:05;5.93;;;2.23;;
19251;SDS011;9760;50.944;5.304;2022-07-18T00:22:33;5.83;;;2.37;;
19251;SDS011;9760;50.944;5.304;2022-07-18T00:24:58;9.37;;;2.73;;
19251;SDS011;9760;50.944;5.304;2022-07-18T00:27:24;9.20;;;2.77;;
19251;SDS011;9760;50.944;5.304;2022-07-18T00:29:50;7.23;;;2.37;;
19251;SDS011;9760;50.944;5.304;2022-07-18T00:32:15;8.97;;;2.97;;
19251;SDS011;9760;50.944;5.304;2022-07-18T00:34:41;5.80;;;2.77;;
19251;SDS011;9760;50.944;5.304;2022-07-18T00:37:06;5.23;;;2.03;;
19251;SDS011;9760;50.944;5.304;2022-07-18T00:39:32;5.00;;;2.40;;
19251;SDS011;9760;50.944;5.304;2022-07-18T00:41:58;6.00;;;2.37;;
19251;SDS011;9760;50.944;5.304;2022-07-18T00:44:25;3.60;;;1.93;;
19251;SDS011;9760;50.944;5.304;2022-07-18T00:46:54;6.23;;;1.93;;
19251;SDS011;9760;50.944;5.304;2022-07-18T00:49:22;8.20;;;2.27;;
19251;SDS011;9760;50.944;5.304;2022-07-18T00:51:48;5.23;;;2.17;;
19251;SDS011;9760;50.944;5.304;2022-07-18T00:54:14;6.87;;;2.20;;
19251;SDS011;9760;50.944;5.304;2022-07-18T00:56:40;6.77;;;2.30;;
19251;SDS011;9760;50.944;5.304;2022-07-18T00:59:06;4.80;;;2.23;;
19251;SDS011;9760;50.944;5.304;2022-07-18T01:01:32;10.90;;;2.67;;
19251;SDS011;9760;50.944;5.304;2022-07-18T01:06:38;4.43;;;2.37;;
19251;SDS011;9760;50.944;5.304;2022-07-18T01:09:04;4.70;;;2.33;;
19251;SDS011;9760;50.944;5.304;2022-07-18T01:11:31;8.97;;;2.50;;
19251;SDS011;9760;50.944;5.304;2022-07-18T01:13:57;4.83;;;2.33;;
19251;SDS011;9760;50.944;5.304;2022-07-18T01:16:23;8.20;;;2.50;;
19251;SDS011;9760;50.944;5.304;2022-07-18T01:18:49;6.70;;;2.20;;
19251;SDS011;9760;50.944;5.304;2022-07-18T01:21:16;4.43;;;2.10;;
19251;SDS011;9760;50.944;5.304;2022-07-18T01:23:43;9.67;;;2.20;;
19251;SDS011;9760;50.944;5.304;2022-07-18T01:26:09;11.23;;;2.33;;
19251;SDS011;9760;50.944;5.304;2022-07-18T01:28:38;5.40;;;2.43;;
19251;SDS011;9760;50.944;5.304;2022-07-18T01:31:04;10.33;;;2.33;;
19251;SDS011;9760;50.944;5.304;2022-07-18T01:33:32;6.13;;;2.30;;
19251;SDS011;9760;50.944;5.304;2022-07-18T01:36:02;7.17;;;2.37;;
19251;SDS011;9760;50.944;5.304;2022-07-18T01:38:30;6.03;;;2.23;;
19251;SDS011;9760;50.944;5.304;2022-07-18T01:40:56;8.13;;;1.97;;
19251;SDS011;9760;50.944;5.304;2022-07-18T01:43:23;4.20;;;1.90;;
19251;SDS011;9760;50.944;5.304;2022-07-18T01:45:50;10.10;;;1.90;;
19251;SDS011;9760;50.944;5.304;2022-07-18T01:48:16;4.20;;;1.80;;
19251;SDS011;9760;50.944;5.304;2022-07-18T01:50:42;7.60;;;2.03;;
19251;SDS011;9760;50.944;5.304;2022-07-18T01:53:08;5.50;;;2.20;;
19251;SDS011;9760;50.944;5.304;2022-07-18T01:55:34;7.53;;;2.30;;
19251;SDS011;9760;50.944;5.304;2022-07-18T01:57:59;5.70;;;1.73;;
19251;SDS011;9760;50.944;5.304;2022-07-18T02:00:25;6.33;;;2.20;;
19251;SDS011;9760;50.944;5.304;2022-07-18T02:02:51;7.17;;;1.90;;
19251;SDS011;9760;50.944;5.304;2022-07-18T02:05:17;7.97;;;2.20;;
19251;SDS011;9760;50.944;5.304;2022-07-18T02:07:42;9.60;;;2.10;;
19251;SDS011;9760;50.944;5.304;2022-07-18T02:10:12;4.27;;;1.97;;
19251;SDS011;9760;50.944;5.304;2022-07-18T02:12:41;4.07;;;2.10;;
19251;SDS011;9760;50.944;5.304;2022-07-18T02:15:07;7.47;;;2.20;;
19251;SDS011;9760;50.944;5.304;2022-07-18T02:17:34;4.13;;;1.83;;
19251;SDS011;9760;50.944;5.304;2022-07-18T02:20:01;4.93;;;1.93;;
19251;SDS011;9760;50.944;5.304;2022-07-18T02:22:26;6.07;;;2.00;;
19251;SDS011;9760;50.944;5.304;2022-07-18T02:24:52;4.37;;;1.70;;
19251;SDS011;9760;50.944;5.304;2022-07-18T02:27:18;4.57;;;2.00;;
19251;SDS011;9760;50.944;5.304;2022-07-18T02:29:44;7.47;;;1.93;;
19251;SDS011;9760;50.944;5.304;2022-07-18T02:32:11;7.53;;;2.10;;
19251;SDS011;9760;50.944;5.304;2022-07-18T02:34:37;3.97;;;1.60;;
19251;SDS011;9760;50.944;5.304;2022-07-18T02:37:03;9.77;;;2.10;;
19251;SDS011;9760;50.944;5.304;2022-07-18T02:39:28;5.47;;;1.90;;
19251;SDS011;9760;50.944;5.304;2022-07-18T02:41:54;3.47;;;1.87;;
19251;SDS011;9760;50.944;5.304;2022-07-18T02:44:20;4.50;;;1.70;;
19251;SDS011;9760;50.944;5.304;2022-07-18T02:46:46;7.67;;;2.00;;
19251;SDS011;9760;50.944;5.304;2022-07-18T02:49:13;11.20;;;2.33;;
19251;SDS011;9760;50.944;5.304;2022-07-18T02:52:02;6.10;;;1.67;;
19251;SDS011;9760;50.944;5.304;2022-07-18T02:54:30;4.30;;;1.90;;
19251;SDS011;9760;50.944;5.304;2022-07-18T02:56:57;8.50;;;2.07;;
19251;SDS011;9760;50.944;5.304;2022-07-18T02:59:24;13.87;;;2.23;;
19251;SDS011;9760;50.944;5.304;2022-07-18T03:01:50;4.00;;;2.27;;
19251;SDS011;9760;50.944;5.304;2022-07-18T03:04:16;2.80;;;1.90;;
19251;SDS011;9760;50.944;5.304;2022-07-18T03:06:43;3.97;;;1.80;;
19251;SDS011;9760;50.944;5.304;2022-07-18T03:09:08;7.63;;;2.13;;
19251;SDS011;9760;50.944;5.304;2022-07-18T03:11:34;4.37;;;1.87;;
19251;SDS011;9760;50.944;5.304;2022-07-18T03:14:00;8.37;;;2.10;;
19251;SDS011;9760;50.944;5.304;2022-07-18T03:16:25;5.63;;;2.10;;
19251;SDS011;9760;50.944;5.304;2022-07-18T03:18:51;9.67;;;2.23;;
19251;SDS011;9760;50.944;5.304;2022-07-18T03:21:17;9.17;;;1.87;;
19251;SDS011;9760;50.944;5.304;2022-07-18T03:23:42;6.73;;;2.23;;
19251;SDS011;9760;50.944;5.304;2022-07-18T03:26:08;4.57;;;1.97;;
19251;SDS011;9760;50.944;5.304;2022-07-18T03:28:34;8.63;;;2.00;;
19251;SDS011;9760;50.944;5.304;2022-07-18T03:30:59;8.17;;;2.37;;
19251;SDS011;9760;50.944;5.304;2022-07-18T03:33:25;4.50;;;2.20;;
19251;SDS011;9760;50.944;5.304;2022-07-18T03:35:51;7.67;;;2.30;;
19251;SDS011;9760;50.944;5.304;2022-07-18T03:38:17;5.73;;;2.43;;
19251;SDS011;9760;50.944;5.304;2022-07-18T03:40:43;5.13;;;1.90;;
19251;SDS011;9760;50.944;5.304;2022-07-18T03:43:08;5.77;;;1.87;;
19251;SDS011;9760;50.944;5.304;2022-07-18T03:45:34;7.43;;;1.80;;
19251;SDS011;9760;50.944;5.304;2022-07-18T03:48:00;5.50;;;2.13;;
19251;SDS011;9760;50.944;5.304;2022-07-18T03:50:25;6.13;;;2.30;;
19251;SDS011;9760;50.944;5.304;2022-07-18T03:52:52;5.37;;;1.97;;
19251;SDS011;9760;50.944;5.304;2022-07-18T03:55:18;6.23;;;2.40;;
19251;SDS011;9760;50.944;5.304;2022-07-18T03:57:44;7.73;;;2.30;;
19251;SDS011;9760;50.944;5.304;2022-07-18T04:00:10;5.00;;;2.23;;
19251;SDS011;9760;50.944;5.304;2022-07-18T04:02:42;8.60;;;2.07;;
19251;SDS011;9760;50.944;5.304;2022-07-18T04:05:10;10.07;;;2.43;;
19251;SDS011;9760;50.944;5.304;2022-07-18T04:07:36;8.17;;;2.60;;
19251;SDS011;9760;50.944;5.304;2022-07-18T04:10:02;7.93;;;2.60;;
19251;SDS011;9760;50.944;5.304;2022-07-18T04:12:29;6.77;;;2.30;;
19251;SDS011;9760;50.944;5.304;2022-07-18T04:14:55;5.27;;;2.50;;
19251;SDS011;9760;50.944;5.304;2022-07-18T04:17:20;9.87;;;2.30;;
19251;SDS011;9760;50.944;5.304;2022-07-18T04:19:46;7.23;;;2.13;;
19251;SDS011;9760;50.944;5.304;2022-07-18T04:22:12;18.17;;;3.73;;
19251;SDS011;9760;50.944;5.304;2022-07-18T04:24:37;3.57;;;2.10;;
19251;SDS011;9760;50.944;5.304;2022-07-18T04:27:03;10.47;;;2.70;;
19251;SDS011;9760;50.944;5.304;2022-07-18T04:29:29;8.90;;;2.37;;
19251;SDS011;9760;50.944;5.304;2022-07-18T04:31:56;12.07;;;2.63;;
19251;SDS011;9760;50.944;5.304;2022-07-18T04:34:22;10.90;;;2.73;;
19251;SDS011;9760;50.944;5.304;2022-07-18T04:36:48;11.10;;;2.03;;
19251;SDS011;9760;50.944;5.304;2022-07-18T04:39:14;7.73;;;2.57;;
19251;SDS011;9760;50.944;5.304;2022-07-18T04:41:41;9.57;;;1.97;;
19251;SDS011;9760;50.944;5.304;2022-07-18T04:44:07;11.80;;;2.47;;
19251;SDS011;9760;50.944;5.304;2022-07-18T04:46:33;12.87;;;2.50;;
19251;SDS011;9760;50.944;5.304;2022-07-18T04:48:59;7.67;;;2.83;;
19251;SDS011;9760;50.944;5.304;2022-07-18T04:51:25;10.73;;;2.70;;
19251;SDS011;9760;50.944;5.304;2022-07-18T04:53:50;7.90;;;2.50;;
19251;SDS011;9760;50.944;5.304;2022-07-18T04:56:16;7.80;;;2.60;;
19251;SDS011;9760;50.944;5.304;2022-07-18T04:58:42;8.20;;;2.90;;
19251;SDS011;9760;50.944;5.304;2022-07-18T05:01:07;9.70;;;2.77;;
19251;SDS011;9760;50.944;5.304;2022-07-18T05:03:34;7.93;;;2.83;;
19251;SDS011;9760;50.944;5.304;2022-07-18T05:05:59;13.87;;;3.40;;
19251;SDS011;9760;50.944;5.304;2022-07-18T05:08:25;9.27;;;3.23;;
19251;SDS011;9760;50.944;5.304;2022-07-18T05:10:51;7.60;;;2.93;;
19251;SDS011;9760;50.944;5.304;2022-07-18T05:13:16;12.77;;;2.97;;
19251;SDS011;9760;50.944;5.304;2022-07-18T05:15:42;7.33;;;3.40;;
19251;SDS011;9760;50.944;5.304;2022-07-18T05:18:07;15.27;;;3.60;;
19251;SDS011;9760;50.944;5.304;2022-07-18T05:20:33;9.37;;;3.00;;
19251;SDS011;9760;50.944;5.304;2022-07-18T05:22:59;12.93;;;3.47;;
19251;SDS011;9760;50.944;5.304;2022-07-18T05:25:24;7.17;;;2.93;;
19251;SDS011;9760;50.944;5.304;2022-07-18T05:27:51;9.47;;;3.20;;
19251;SDS011;9760;50.944;5.304;2022-07-18T05:30:17;9.97;;;3.40;;
19251;SDS011;9760;50.944;5.304;2022-07-18T05:32:44;8.90;;;3.27;;
19251;SDS011;9760;50.944;5.304;2022-07-18T05:35:11;9.03;;;3.57;;
19251;SDS011;9760;50.944;5.304;2022-07-18T05:37:37;17.63;;;2.93;;
19251;SDS011;9760;50.944;5.304;2022-07-18T05:40:04;8.60;;;3.37;;
19251;SDS011;9760;50.944;5.304;2022-07-18T05:42:30;11.73;;;3.20;;
19251;SDS011;9760;50.944;5.304;2022-07-18T05:44:56;18.90;;;3.43;;
19251;SDS011;9760;50.944;5.304;2022-07-18T05:47:22;14.07;;;3.33;;
19251;SDS011;9760;50.944;5.304;2022-07-18T05:49:47;10.73;;;2.80;;
19251;SDS011;9760;50.944;5.304;2022-07-18T05:52:13;12.13;;;2.67;;
19251;SDS011;9760;50.944;5.304;2022-07-18T05:54:39;10.70;;;3.20;;
19251;SDS011;9760;50.944;5.304;2022-07-18T05:57:04;15.33;;;3.63;;
19251;SDS011;9760;50.944;5.304;2022-07-18T05:59:30;10.73;;;2.90;;
19251;SDS011;9760;50.944;5.304;2022-07-18T06:01:56;10.67;;;2.97;;
19251;SDS011;9760;50.944;5.304;2022-07-18T06:04:22;10.17;;;3.43;;
19251;SDS011;9760;50.944;5.304;2022-07-18T06:06:47;15.73;;;3.33;;
19251;SDS011;9760;50.944;5.304;2022-07-18T06:09:15;18.37;;;3.87;;
19251;SDS011;9760;50.944;5.304;2022-07-18T06:11:41;8.97;;;2.20;;
19251;SDS011;9760;50.944;5.304;2022-07-18T06:14:07;17.03;;;3.47;;
19251;SDS011;9760;50.944;5.304;2022-07-18T06:16:32;8.03;;;3.33;;
19251;SDS011;9760;50.944;5.304;2022-07-18T06:18:58;12.50;;;2.77;;
19251;SDS011;9760;50.944;5.304;2022-07-18T06:21:24;9.47;;;2.43;;
19251;SDS011;9760;50.944;5.304;2022-07-18T06:23:50;17.30;;;2.30;;
19251;SDS011;9760;50.944;5.304;2022-07-18T06:26:16;11.13;;;2.40;;
19251;SDS011;9760;50.944;5.304;2022-07-18T06:28:41;9.80;;;2.03;;
19251;SDS011;9760;50.944;5.304;2022-07-18T06:31:07;10.07;;;1.80;;
19251;SDS011;9760;50.944;5.304;2022-07-18T06:33:33;8.10;;;2.10;;
19251;SDS011;9760;50.944;5.304;2022-07-18T06:35:58;8.93;;;2.27;;
19251;SDS011;9760;50.944;5.304;2022-07-18T06:38:24;8.10;;;1.90;;
19251;SDS011;9760;50.944;5.304;2022-07-18T06:40:50;6.80;;;2.03;;
19251;SDS011;9760;50.944;5.304;2022-07-18T06:43:15;8.83;;;2.20;;
19251;SDS011;9760;50.944;5.304;2022-07-18T06:45:47;9.47;;;1.90;;
19251;SDS011;9760;50.944;5.304;2022-07-18T06:48:13;9.00;;;1.90;;
19251;SDS011;9760;50.944;5.304;2022-07-18T06:50:40;7.17;;;2.20;;
19251;SDS011;9760;50.944;5.304;2022-07-18T06:53:06;9.77;;;1.90;;
19251;SDS011;9760;50.944;5.304;2022-07-18T06:55:32;2.47;;;1.60;;
19251;SDS011;9760;50.944;5.304;2022-07-18T06:57:57;5.23;;;1.90;;
19251;SDS011;9760;50.944;5.304;2022-07-18T07:00:23;4.27;;;1.97;;
19251;SDS011;9760;50.944;5.304;2022-07-18T07:02:49;8.07;;;1.87;;
19251;SDS011;9760;50.944;5.304;2022-07-18T07:05:16;14.57;;;1.97;;
19251;SDS011;9760;50.944;5.304;2022-07-18T07:07:43;11.77;;;1.97;;
19251;SDS011;9760;50.944;5.304;2022-07-18T07:10:10;7.53;;;1.80;;
19251;SDS011;9760;50.944;5.304;2022-07-18T07:12:43;12.13;;;2.27;;
19251;SDS011;9760;50.944;5.304;2022-07-18T07:15:13;7.40;;;2.03;;
19251;SDS011;9760;50.944;5.304;2022-07-18T07:17:39;8.17;;;2.00;;
19251;SDS011;9760;50.944;5.304;2022-07-18T07:20:06;6.87;;;1.70;;
19251;SDS011;9760;50.944;5.304;2022-07-18T07:22:40;7.43;;;2.37;;
19251;SDS011;9760;50.944;5.304;2022-07-18T07:25:07;9.37;;;2.03;;
19251;SDS011;9760;50.944;5.304;2022-07-18T07:27:33;12.77;;;1.90;;
19251;SDS011;9760;50.944;5.304;2022-07-18T07:29:59;9.27;;;2.13;;
19251;SDS011;9760;50.944;5.304;2022-07-18T07:32:26;6.87;;;1.90;;
19251;SDS011;9760;50.944;5.304;2022-07-18T07:34:51;4.93;;;1.80;;
19251;SDS011;9760;50.944;5.304;2022-07-18T07:37:17;10.07;;;1.93;;
19251;SDS011;9760;50.944;5.304;2022-07-18T07:39:42;7.53;;;1.90;;
19251;SDS011;9760;50.944;5.304;2022-07-18T07:42:09;6.73;;;2.20;;
19251;SDS011;9760;50.944;5.304;2022-07-18T07:44:34;7.23;;;1.70;;
19251;SDS011;9760;50.944;5.304;2022-07-18T07:47:00;3.40;;;1.80;;
19251;SDS011;9760;50.944;5.304;2022-07-18T07:49:25;6.90;;;1.70;;
19251;SDS011;9760;50.944;5.304;2022-07-18T07:51:51;7.07;;;1.67;;
19251;SDS011;9760;50.944;5.304;2022-07-18T07:54:17;4.57;;;1.47;;
19251;SDS011;9760;50.944;5.304;2022-07-18T07:56:42;5.00;;;1.50;;
19251;SDS011;9760;50.944;5.304;2022-07-18T07:59:08;5.03;;;1.77;;
19251;SDS011;9760;50.944;5.304;2022-07-18T08:01:34;7.33;;;1.40;;
19251;SDS011;9760;50.944;5.304;2022-07-18T08:03:59;2.10;;;1.27;;
19251;SDS011;9760;50.944;5.304;2022-07-18T08:06:25;7.83;;;1.50;;
19251;SDS011;9760;50.944;5.304;2022-07-18T08:08:51;11.73;;;1.90;;
19251;SDS011;9760;50.944;5.304;2022-07-18T08:11:17;4.23;;;1.70;;
19251;SDS011;9760;50.944;5.304;2022-07-18T08:13:43;7.53;;;1.50;;
19251;SDS011;9760;50.944;5.304;2022-07-18T08:16:08;6.93;;;1.90;;
19251;SDS011;9760;50.944;5.304;2022-07-18T08:18:34;5.83;;;1.40;;
19251;SDS011;9760;50.944;5.304;2022-07-18T08:20:59;3.23;;;1.40;;
19251;SDS011;9760;50.944;5.304;2022-07-18T08:23:25;10.70;;;1.50;;
19251;SDS011;9760;50.944;5.304;2022-07-18T08:25:51;10.17;;;1.57;;
19251;SDS011;9760;50.944;5.304;2022-07-18T08:28:16;6.30;;;1.83;;
19251;SDS011;9760;50.944;5.304;2022-07-18T08:30:42;7.30;;;1.50;;
19251;SDS011;9760;50.944;5.304;2022-07-18T08:33:08;6.17;;;1.43;;
19251;SDS011;9760;50.944;5.304;2022-07-18T08:35:34;7.73;;;1.97;;
19251;SDS011;9760;50.944;5.304;2022-07-18T08:38:00;7.97;;;1.50;;
19251;SDS011;9760;50.944;5.304;2022-07-18T08:40:27;5.17;;;1.20;;
19251;SDS011;9760;50.944;5.304;2022-07-18T08:42:54;4.60;;;1.30;;
19251;SDS011;9760;50.944;5.304;2022-07-18T08:45:21;3.80;;;1.67;;
19251;SDS011;9760;50.944;5.304;2022-07-18T08:47:49;4.83;;;1.30;;
19251;SDS011;9760;50.944;5.304;2022-07-18T08:50:16;5.97;;;1.43;;
19251;SDS011;9760;50.944;5.304;2022-07-18T08:52:42;6.13;;;1.40;;
19251;SDS011;9760;50.944;5.304;2022-07-18T08:55:09;6.17;;;1.30;;
19251;SDS011;9760;50.944;5.304;2022-07-18T08:57:35;5.33;;;1.40;;
19251;SDS011;9760;50.944;5.304;2022-07-18T09:00:02;4.90;;;1.47;;
19251;SDS011;9760;50.944;5.304;2022-07-18T09:02:32;2.83;;;1.27;;
19251;SDS011;9760;50.944;5.304;2022-07-18T09:04:59;7.10;;;1.20;;
19251;SDS011;9760;50.944;5.304;2022-07-18T09:07:29;5.07;;;1.17;;
19251;SDS011;9760;50.944;5.304;2022-07-18T09:09:57;4.30;;;1.53;;
19251;SDS011;9760;50.944;5.304;2022-07-18T09:12:27;3.53;;;1.37;;
19251;SDS011;9760;50.944;5.304;2022-07-18T09:14:56;1.97;;;1.00;;
19251;SDS011;9760;50.944;5.304;2022-07-18T09:17:28;3.50;;;1.00;;
19251;SDS011;9760;50.944;5.304;2022-07-18T09:22:27;7.80;;;1.20;;
19251;SDS011;9760;50.944;5.304;2022-07-18T09:24:59;4.60;;;1.47;;
19251;SDS011;9760;50.944;5.304;2022-07-18T09:30:10;4.70;;;1.50;;
19251;SDS011;9760;50.944;5.304;2022-07-18T09:32:51;3.07;;;1.13;;
19251;SDS011;9760;50.944;5.304;2022-07-18T09:35:26;3.50;;;1.60;;
19251;SDS011;9760;50.944;5.304;2022-07-18T09:40:43;2.03;;;1.10;;
19251;SDS011;9760;50.944;5.304;2022-07-18T09:43:11;3.80;;;1.10;;
19251;SDS011;9760;50.944;5.304;2022-07-18T09:48:10;7.87;;;1.50;;
19251;SDS011;9760;50.944;5.304;2022-07-18T09:50:41;4.43;;;1.50;;
19251;SDS011;9760;50.944;5.304;2022-07-18T09:55:49;5.37;;;1.17;;
19251;SDS011;9760;50.944;5.304;2022-07-18T09:58:27;5.47;;;1.50;;
19251;SDS011;9760;50.944;5.304;2022-07-18T10:00:57;3.23;;;1.17;;
19251;SDS011;9760;50.944;5.304;2022-07-18T10:03:25;7.20;;;1.13;;
19251;SDS011;9760;50.944;5.304;2022-07-18T10:05:52;5.63;;;1.60;;
19251;SDS011;9760;50.944;5.304;2022-07-18T10:08:22;4.17;;;1.50;;
19251;SDS011;9760;50.944;5.304;2022-07-18T10:10:56;7.03;;;1.30;;
19251;SDS011;9760;50.944;5.304;2022-07-18T10:13:26;5.30;;;1.40;;
19251;SDS011;9760;50.944;5.304;2022-07-18T10:15:53;6.43;;;1.27;;
19251;SDS011;9760;50.944;5.304;2022-07-18T10:18:20;4.53;;;1.20;;
19251;SDS011;9760;50.944;5.304;2022-07-18T10:23:25;2.83;;;1.47;;
19251;SDS011;9760;50.944;5.304;2022-07-18T10:31:25;3.73;;;1.20;;
19251;SDS011;9760;50.944;5.304;2022-07-18T10:33:52;3.80;;;1.40;;
19251;SDS011;9760;50.944;5.304;2022-07-18T10:36:20;3.20;;;1.00;;
19251;SDS011;9760;50.944;5.304;2022-07-18T10:57:34;2.30;;;1.30;;
19251;SDS011;9760;50.944;5.304;2022-07-18T11:00:28;4.50;;;1.33;;
19251;SDS011;9760;50.944;5.304;2022-07-18T11:18:27;3.27;;;1.30;;
19251;SDS011;9760;50.944;5.304;2022-07-18T11:20:55;1.47;;;1.10;;
19251;SDS011;9760;50.944;5.304;2022-07-18T11:23:25;4.10;;;1.30;;
19251;SDS011;9760;50.944;5.304;2022-07-18T11:25:52;4.80;;;1.20;;
19251;SDS011;9760;50.944;5.304;2022-07-18T11:28:21;2.13;;;1.10;;
19251;SDS011;9760;50.944;5.304;2022-07-18T11:31:03;1.15;;;1.02;;
19251;SDS011;9760;50.944;5.304;2022-07-18T11:33:31;10.27;;;1.45;;
19251;SDS011;9760;50.944;5.304;2022-07-18T11:36:09;2.97;;;1.23;;
19251;SDS011;9760;50.944;5.304;2022-07-18T11:38:49;4.13;;;1.20;;
19251;SDS011;9760;50.944;5.304;2022-07-18T11:41:15;4.17;;;1.23;;
19251;SDS011;9760;50.944;5.304;2022-07-18T11:43:43;1.98;;;1.20;;
19251;SDS011;9760;50.944;5.304;2022-07-18T11:46:10;8.20;;;1.17;;
19251;SDS011;9760;50.944;5.304;2022-07-18T11:48:38;1.50;;;1.00;;
19251;SDS011;9760;50.944;5.304;2022-07-18T11:51:08;2.55;;;0.95;;
19251;SDS011;9760;50.944;5.304;2022-07-18T11:53:35;5.57;;;1.20;;
19251;SDS011;9760;50.944;5.304;2022-07-18T11:56:04;2.97;;;1.60;;
19251;SDS011;9760;50.944;5.304;2022-07-18T11:58:37;3.20;;;1.10;;
19251;SDS011;9760;50.944;5.304;2022-07-18T12:01:04;4.13;;;1.50;;
19251;SDS011;9760;50.944;5.304;2022-07-18T12:03:30;8.85;;;1.33;;
19251;SDS011;9760;50.944;5.304;2022-07-18T12:06:08;2.22;;;1.15;;
19251;SDS011;9760;50.944;5.304;2022-07-18T12:08:43;4.72;;;1.48;;
19251;SDS011;9760;50.944;5.304;2022-07-18T12:18:55;2.60;;;1.30;;
19251;SDS011;9760;50.944;5.304;2022-07-18T12:21:38;3.35;;;1.10;;
19251;SDS011;9760;50.944;5.304;2022-07-18T12:24:16;4.90;;;1.30;;
19251;SDS011;9760;50.944;5.304;2022-07-18T12:35:27;3.83;;;1.25;;
19251;SDS011;9760;50.944;5.304;2022-07-18T12:40:24;4.57;;;1.60;;
19251;SDS011;9760;50.944;5.304;2022-07-18T12:43:11;8.55;;;1.50;;
19251;SDS011;9760;50.944;5.304;2022-07-18T12:45:42;9.02;;;2.03;;
19251;SDS011;9760;50.944;5.304;2022-07-18T12:48:09;3.15;;;1.23;;
19251;SDS011;9760;50.944;5.304;2022-07-18T12:50:36;4.72;;;1.60;;
19251;SDS011;9760;50.944;5.304;2022-07-18T12:53:03;4.75;;;1.20;;
19251;SDS011;9760;50.944;5.304;2022-07-18T12:55:29;1.90;;;1.08;;
19251;SDS011;9760;50.944;5.304;2022-07-18T12:57:54;5.55;;;1.50;;
19251;SDS011;9760;50.944;5.304;2022-07-18T13:00:20;4.97;;;1.40;;
19251;SDS011;9760;50.944;5.304;2022-07-18T13:02:46;3.08;;;1.50;;
19251;SDS011;9760;50.944;5.304;2022-07-18T13:05:12;4.47;;;1.08;;
19251;SDS011;9760;50.944;5.304;2022-07-18T13:07:38;3.53;;;1.17;;
19251;SDS011;9760;50.944;5.304;2022-07-18T13:10:04;8.70;;;1.90;;
19251;SDS011;9760;50.944;5.304;2022-07-18T13:12:31;7.17;;;1.90;;
19251;SDS011;9760;50.944;5.304;2022-07-18T13:14:57;9.70;;;2.17;;
19251;SDS011;9760;50.944;5.304;2022-07-18T13:17:22;11.13;;;1.73;;
19251;SDS011;9760;50.944;5.304;2022-07-18T13:19:48;11.23;;;1.83;;
19251;SDS011;9760;50.944;5.304;2022-07-18T13:22:15;17.77;;;2.70;;
19251;SDS011;9760;50.944;5.304;2022-07-18T13:24:41;10.50;;;1.43;;
19251;SDS011;9760;50.944;5.304;2022-07-18T13:27:07;5.30;;;1.20;;
19251;SDS011;9760;50.944;5.304;2022-07-18T13:29:33;5.10;;;1.50;;
19251;SDS011;9760;50.944;5.304;2022-07-18T13:31:59;4.10;;;1.00;;
19251;SDS011;9760;50.944;5.304;2022-07-18T13:34:26;4.40;;;1.50;;
19251;SDS011;9760;50.944;5.304;2022-07-18T13:36:51;5.77;;;2.40;;
19251;SDS011;9760;50.944;5.304;2022-07-18T13:39:18;4.63;;;1.57;;
19251;SDS011;9760;50.944;5.304;2022-07-18T13:41:44;6.90;;;1.80;;
19251;SDS011;9760;50.944;5.304;2022-07-18T13:44:11;14.43;;;1.03;;
19251;SDS011;9760;50.944;5.304;2022-07-18T13:46:37;4.23;;;1.47;;
19251;SDS011;9760;50.944;5.304;2022-07-18T13:49:05;6.53;;;1.73;;
19251;SDS011;9760;50.944;5.304;2022-07-18T13:51:35;5.10;;;1.53;;
19251;SDS011;9760;50.944;5.304;2022-07-18T13:54:02;23.90;;;2.17;;
19251;SDS011;9760;50.944;5.304;2022-07-18T13:56:31;5.13;;;1.40;;
19251;SDS011;9760;50.944;5.304;2022-07-18T13:58:57;1.67;;;1.07;;
19251;SDS011;9760;50.944;5.304;2022-07-18T14:01:23;2.83;;;1.30;;
19251;SDS011;9760;50.944;5.304;2022-07-18T14:03:49;7.07;;;1.20;;
19251;SDS011;9760;50.944;5.304;2022-07-18T14:06:15;4.90;;;1.50;;
19251;SDS011;9760;50.944;5.304;2022-07-18T14:08:41;8.30;;;2.00;;
19251;SDS011;9760;50.944;5.304;2022-07-18T14:11:06;1.97;;;1.13;;
19251;SDS011;9760;50.944;5.304;2022-07-18T14:13:32;2.10;;;1.10;;
19251;SDS011;9760;50.944;5.304;2022-07-18T14:15:57;3.30;;;1.03;;
19251;SDS011;9760;50.944;5.304;2022-07-18T14:18:23;8.33;;;1.30;;
19251;SDS011;9760;50.944;5.304;2022-07-18T14:20:49;4.17;;;1.57;;
19251;SDS011;9760;50.944;5.304;2022-07-18T14:23:14;3.30;;;1.30;;
19251;SDS011;9760;50.944;5.304;2022-07-18T14:25:40;6.53;;;1.30;;
19251;SDS011;9760;50.944;5.304;2022-07-18T14:28:06;2.20;;;1.33;;
19251;SDS011;9760;50.944;5.304;2022-07-18T14:30:31;2.17;;;1.40;;
19251;SDS011;9760;50.944;5.304;2022-07-18T14:32:58;36.37;;;4.13;;
19251;SDS011;9760;50.944;5.304;2022-07-18T14:35:23;8.83;;;1.70;;
19251;SDS011;9760;50.944;5.304;2022-07-18T14:37:49;2.50;;;1.27;;
19251;SDS011;9760;50.944;5.304;2022-07-18T14:40:15;3.77;;;1.00;;
19251;SDS011;9760;50.944;5.304;2022-07-18T14:42:41;2.90;;;1.60;;
19251;SDS011;9760;50.944;5.304;2022-07-18T14:45:07;11.47;;;1.40;;
19251;SDS011;9760;50.944;5.304;2022-07-18T14:47:33;4.97;;;1.90;;
19251;SDS011;9760;50.944;5.304;2022-07-18T14:50:00;3.13;;;1.13;;
19251;SDS011;9760;50.944;5.304;2022-07-18T14:52:27;7.67;;;1.30;;
19251;SDS011;9760;50.944;5.304;2022-07-18T14:54:53;2.17;;;1.13;;
19251;SDS011;9760;50.944;5.304;2022-07-18T14:57:19;2.47;;;1.40;;
19251;SDS011;9760;50.944;5.304;2022-07-18T14:59:45;5.33;;;1.30;;
19251;SDS011;9760;50.944;5.304;2022-07-18T15:02:10;3.63;;;1.30;;
19251;SDS011;9760;50.944;5.304;2022-07-18T15:04:37;9.27;;;1.67;;
19251;SDS011;9760;50.944;5.304;2022-07-18T15:07:03;4.13;;;1.50;;
19251;SDS011;9760;50.944;5.304;2022-07-18T15:09:29;10.13;;;1.50;;
19251;SDS011;9760;50.944;5.304;2022-07-18T15:11:55;5.53;;;1.37;;
19251;SDS011;9760;50.944;5.304;2022-07-18T15:14:20;2.37;;;1.00;;
19251;SDS011;9760;50.944;5.304;2022-07-18T15:16:46;4.80;;;1.47;;
19251;SDS011;9760;50.944;5.304;2022-07-18T15:19:12;15.77;;;1.30;;
19251;SDS011;9760;50.944;5.304;2022-07-18T15:21:37;8.03;;;1.97;;
19251;SDS011;9760;50.944;5.304;2022-07-18T15:24:03;4.83;;;1.30;;
19251;SDS011;9760;50.944;5.304;2022-07-18T15:26:29;6.77;;;1.40;;
19251;SDS011;9760;50.944;5.304;2022-07-18T15:28:54;6.83;;;1.40;;
19251;SDS011;9760;50.944;5.304;2022-07-18T15:31:20;4.10;;;1.30;;
19251;SDS011;9760;50.944;5.304;2022-07-18T15:33:46;2.73;;;1.40;;
19251;SDS011;9760;50.944;5.304;2022-07-18T15:36:11;5.43;;;1.35;;
19251;SDS011;9760;50.944;5.304;2022-07-18T15:38:37;3.28;;;1.20;;
19251;SDS011;9760;50.944;5.304;2022-07-18T15:41:09;3.00;;;1.02;;
19251;SDS011;9760;50.944;5.304;2022-07-18T15:43:36;2.17;;;1.27;;
19251;SDS011;9760;50.944;5.304;2022-07-18T15:46:03;3.45;;;1.48;;
19251;SDS011;9760;50.944;5.304;2022-07-18T15:48:29;1.98;;;1.15;;
19251;SDS011;9760;50.944;5.304;2022-07-18T15:50:55;3.17;;;1.30;;
19251;SDS011;9760;50.944;5.304;2022-07-18T15:53:21;3.88;;;1.35;;
19251;SDS011;9760;50.944;5.304;2022-07-18T15:55:47;6.38;;;1.60;;
19251;SDS011;9760;50.944;5.304;2022-07-18T15:58:12;4.72;;;1.30;;
19251;SDS011;9760;50.944;5.304;2022-07-18T16:00:38;5.95;;;1.25;;
19251;SDS011;9760;50.944;5.304;2022-07-18T16:03:03;2.33;;;1.27;;
19251;SDS011;9760;50.944;5.304;2022-07-18T16:05:29;4.78;;;1.20;;
19251;SDS011;9760;50.944;5.304;2022-07-18T16:07:55;3.30;;;1.10;;
19251;SDS011;9760;50.944;5.304;2022-07-18T16:10:21;3.60;;;1.27;;
19251;SDS011;9760;50.944;5.304;2022-07-18T16:12:47;2.55;;;1.00;;
19251;SDS011;9760;50.944;5.304;2022-07-18T16:15:12;1.75;;;1.17;;